TAP1432 LPPT-GMMX
Flight info
| Callsign | TAP1432 |
|---|---|
| Flight time | 1h 10m |
| Altitude | 37000 |
| Route | DUZOP DCT AMSEL UR722 MABAP |
| Aircraft | A319/M-SDE3FGHIRWY/LB1 |
Departure
| Time | 2026-04-29 03:46 |
|---|---|
| Airport | Lisbon Humberto Delgado Airport (LPPT) |
Arrival
| Time | 2026-04-29 04:57 |
|---|---|
| Airport | Marrakesh Menara Airport (GMMX) |
| Time | Latitude | Longitude | Altitude | Speed | Heading |
|---|---|---|---|---|---|
| 2026-04-29 03:29 | 38.76983 | -9.13074 | 331 ft | 0 kts | 79° |
| 2026-04-29 03:38 | 38.76983 | -9.13077 | 331 ft | 2 kts | 80° |
| 2026-04-29 03:38 | 38.76980 | -9.13096 | 332 ft | 2 kts | 79° |
| 2026-04-29 03:38 | 38.76978 | -9.13115 | 332 ft | 2 kts | 79° |
| 2026-04-29 03:38 | 38.76976 | -9.13127 | 333 ft | 1 kts | 80° |
| 2026-04-29 03:39 | 38.76971 | -9.13144 | 333 ft | 2 kts | 47° |
| 2026-04-29 03:39 | 38.76959 | -9.13155 | 333 ft | 2 kts | 16° |
| 2026-04-29 03:39 | 38.76947 | -9.13157 | 333 ft | 0 kts | 351° |
| 2026-04-29 03:39 | 38.76940 | -9.13154 | 333 ft | 1 kts | 347° |
| 2026-04-29 03:40 | 38.76939 | -9.13154 | 333 ft | 0 kts | 347° |
| 2026-04-29 03:41 | 38.76964 | -9.13162 | 333 ft | 8 kts | 347° |
| 2026-04-29 03:42 | 38.77035 | -9.13181 | 332 ft | 14 kts | 348° |
| 2026-04-29 03:42 | 38.77145 | -9.13210 | 328 ft | 17 kts | 348° |
| 2026-04-29 03:42 | 38.77267 | -9.13243 | 328 ft | 18 kts | 349° |
| 2026-04-29 03:42 | 38.77394 | -9.13270 | 328 ft | 18 kts | 349° |
| 2026-04-29 03:43 | 38.77521 | -9.13304 | 329 ft | 18 kts | 347° |
| 2026-04-29 03:43 | 38.77641 | -9.13319 | 332 ft | 16 kts | 355° |
| 2026-04-29 03:43 | 38.77750 | -9.13343 | 335 ft | 14 kts | 348° |
| 2026-04-29 03:43 | 38.77846 | -9.13369 | 338 ft | 13 kts | 347° |
| 2026-04-29 03:44 | 38.77929 | -9.13395 | 341 ft | 12 kts | 346° |
| 2026-04-29 03:44 | 38.78031 | -9.13411 | 345 ft | 19 kts | 8° |
| 2026-04-29 03:44 | 38.78166 | -9.13347 | 347 ft | 20 kts | 22° |
| 2026-04-29 03:44 | 38.78302 | -9.13274 | 348 ft | 21 kts | 22° |
| 2026-04-29 03:45 | 38.78440 | -9.13208 | 347 ft | 20 kts | 8° |
| 2026-04-29 03:45 | 38.78525 | -9.13276 | 352 ft | 11 kts | 293° |
| 2026-04-29 03:45 | 38.78533 | -9.13358 | 357 ft | 7 kts | 236° |
| 2026-04-29 03:45 | 38.78351 | -9.13466 | 361 ft | 70 kts | 204° |
| 2026-04-29 03:46 | 38.77631 | -9.13862 | 359 ft | 152 kts | 202° |
| 2026-04-29 03:46 | 38.76530 | -9.14452 | 902 ft | 178 kts | 205° |
| 2026-04-29 03:46 | 38.75441 | -9.15037 | 1990 ft | 175 kts | 206° |
| 2026-04-29 03:46 | 38.74332 | -9.15636 | 2915 ft | 185 kts | 205° |
| 2026-04-29 03:47 | 38.73106 | -9.16300 | 3747 ft | 202 kts | 204° |
| 2026-04-29 03:47 | 38.71770 | -9.17023 | 4486 ft | 214 kts | 204° |
| 2026-04-29 03:47 | 38.70362 | -9.17783 | 4979 ft | 233 kts | 204° |
| 2026-04-29 03:47 | 38.68815 | -9.18617 | 5688 ft | 244 kts | 203° |
| 2026-04-29 03:48 | 38.67274 | -9.19447 | 6585 ft | 245 kts | 203° |
| 2026-04-29 03:48 | 38.65698 | -9.20296 | 7409 ft | 250 kts | 203° |
| 2026-04-29 03:48 | 38.64046 | -9.21184 | 7955 ft | 267 kts | 202° |
| 2026-04-29 03:48 | 38.62314 | -9.22116 | 8687 ft | 275 kts | 202° |
| 2026-04-29 03:49 | 38.60537 | -9.22988 | 9572 ft | 277 kts | 197° |
| 2026-04-29 03:49 | 38.58658 | -9.23548 | 10416 ft | 281 kts | 191° |
| 2026-04-29 03:49 | 38.56690 | -9.23997 | 10912 ft | 297 kts | 189° |
| 2026-04-29 03:49 | 38.54562 | -9.24098 | 11297 ft | 317 kts | 172° |
| 2026-04-29 03:50 | 38.52413 | -9.23144 | 11652 ft | 338 kts | 155° |
| 2026-04-29 03:50 | 38.50307 | -9.21653 | 12005 ft | 356 kts | 152° |
| 2026-04-29 03:50 | 38.48124 | -9.19997 | 12314 ft | 373 kts | 151° |
| 2026-04-29 03:50 | 38.45867 | -9.18272 | 12796 ft | 382 kts | 151° |
| 2026-04-29 03:51 | 38.43608 | -9.16536 | 13459 ft | 386 kts | 151° |
| 2026-04-29 03:51 | 38.41284 | -9.14735 | 14137 ft | 389 kts | 151° |
| 2026-04-29 03:51 | 38.38974 | -9.12925 | 14768 ft | 393 kts | 151° |
| 2026-04-29 03:51 | 38.36666 | -9.11101 | 15360 ft | 396 kts | 151° |
| 2026-04-29 03:52 | 38.34308 | -9.09222 | 15944 ft | 400 kts | 151° |
| 2026-04-29 03:52 | 38.31941 | -9.07317 | 16488 ft | 405 kts | 151° |
| 2026-04-29 03:52 | 38.29581 | -9.05397 | 17018 ft | 409 kts | 151° |
| 2026-04-29 03:52 | 38.27179 | -9.03428 | 17535 ft | 412 kts | 151° |
| 2026-04-29 03:53 | 38.24759 | -9.01426 | 18033 ft | 416 kts | 151° |
| 2026-04-29 03:53 | 38.22319 | -8.99394 | 18490 ft | 421 kts | 151° |
| 2026-04-29 03:53 | 38.19869 | -8.97344 | 18946 ft | 425 kts | 151° |
| 2026-04-29 03:53 | 38.17388 | -8.95298 | 19419 ft | 427 kts | 152° |
| 2026-04-29 03:54 | 38.14858 | -8.93324 | 19879 ft | 428 kts | 155° |
| 2026-04-29 03:54 | 38.12267 | -8.91448 | 20472 ft | 428 kts | 154° |
| 2026-04-29 03:54 | 38.09711 | -8.89583 | 20966 ft | 430 kts | 155° |
| 2026-04-29 03:54 | 38.07083 | -8.87671 | 21363 ft | 434 kts | 155° |
| 2026-04-29 03:55 | 38.04456 | -8.85832 | 21754 ft | 435 kts | 159° |
| 2026-04-29 03:55 | 38.01657 | -8.84362 | 22197 ft | 434 kts | 164° |
| 2026-04-29 03:55 | 37.98819 | -8.83055 | 22602 ft | 436 kts | 165° |
| 2026-04-29 03:55 | 37.95929 | -8.81746 | 22975 ft | 440 kts | 165° |
| 2026-04-29 03:56 | 37.93055 | -8.80426 | 23339 ft | 443 kts | 165° |
| 2026-04-29 03:56 | 37.90163 | -8.79073 | 23701 ft | 447 kts | 165° |
| 2026-04-29 03:56 | 37.87224 | -8.77683 | 24059 ft | 451 kts | 164° |
| 2026-04-29 03:56 | 37.84286 | -8.76283 | 24429 ft | 454 kts | 164° |
| 2026-04-29 03:57 | 37.81324 | -8.74866 | 24769 ft | 457 kts | 164° |
| 2026-04-29 03:57 | 37.78358 | -8.73446 | 25075 ft | 462 kts | 164° |
| 2026-04-29 03:57 | 37.75310 | -8.71985 | 25399 ft | 465 kts | 164° |
| 2026-04-29 03:57 | 37.72278 | -8.70531 | 25716 ft | 469 kts | 164° |
| 2026-04-29 03:58 | 37.69219 | -8.69065 | 26025 ft | 472 kts | 164° |
| 2026-04-29 03:58 | 37.66182 | -8.67608 | 26416 ft | 473 kts | 164° |
| 2026-04-29 03:58 | 37.63118 | -8.66138 | 26869 ft | 473 kts | 165° |
| 2026-04-29 03:58 | 37.60020 | -8.64653 | 27328 ft | 472 kts | 165° |
| 2026-04-29 03:59 | 37.56984 | -8.63201 | 27758 ft | 473 kts | 165° |
| 2026-04-29 03:59 | 37.53874 | -8.61717 | 28184 ft | 474 kts | 165° |
| 2026-04-29 03:59 | 37.50827 | -8.60263 | 28613 ft | 474 kts | 165° |
| 2026-04-29 03:59 | 37.47722 | -8.58783 | 29047 ft | 475 kts | 165° |
| 2026-04-29 04:00 | 37.44623 | -8.57308 | 29482 ft | 476 kts | 165° |
| 2026-04-29 04:00 | 37.41558 | -8.55849 | 29941 ft | 476 kts | 166° |
| 2026-04-29 04:00 | 37.38431 | -8.54362 | 30397 ft | 477 kts | 166° |
| 2026-04-29 04:00 | 37.35342 | -8.52895 | 30879 ft | 476 kts | 166° |
| 2026-04-29 04:01 | 37.32238 | -8.51424 | 31383 ft | 475 kts | 166° |
| 2026-04-29 04:01 | 37.29181 | -8.49975 | 31911 ft | 474 kts | 165° |
| 2026-04-29 04:01 | 37.26089 | -8.48510 | 32381 ft | 474 kts | 166° |
| 2026-04-29 04:01 | 37.22993 | -8.47045 | 32845 ft | 474 kts | 165° |
| 2026-04-29 04:02 | 37.19910 | -8.45590 | 33287 ft | 474 kts | 165° |
| 2026-04-29 04:02 | 37.16847 | -8.44142 | 33756 ft | 473 kts | 165° |
| 2026-04-29 04:02 | 37.13765 | -8.42687 | 34252 ft | 471 kts | 165° |
| 2026-04-29 04:02 | 37.10739 | -8.41260 | 34711 ft | 470 kts | 165° |
| 2026-04-29 04:03 | 37.07686 | -8.39821 | 35170 ft | 469 kts | 165° |
| 2026-04-29 04:03 | 37.04604 | -8.38371 | 35548 ft | 470 kts | 165° |
| 2026-04-29 04:03 | 37.01542 | -8.36932 | 35869 ft | 471 kts | 165° |
| 2026-04-29 04:03 | 36.98488 | -8.35498 | 36179 ft | 472 kts | 165° |
| 2026-04-29 04:04 | 36.95438 | -8.34065 | 36456 ft | 473 kts | 165° |
| 2026-04-29 04:04 | 36.92367 | -8.32622 | 36734 ft | 473 kts | 165° |
| 2026-04-29 04:04 | 36.89262 | -8.31167 | 36851 ft | 475 kts | 165° |
| 2026-04-29 04:04 | 36.86182 | -8.29723 | 36855 ft | 474 kts | 165° |
| 2026-04-29 04:05 | 36.80002 | -8.26832 | 36861 ft | 474 kts | 165° |
| 2026-04-29 04:05 | 36.73828 | -8.23948 | 36860 ft | 475 kts | 165° |
| 2026-04-29 04:06 | 36.67668 | -8.21075 | 36863 ft | 474 kts | 165° |
| 2026-04-29 04:06 | 36.62497 | -8.18669 | 36869 ft | 474 kts | 165° |
| 2026-04-29 04:07 | 36.56299 | -8.15788 | 36870 ft | 475 kts | 165° |
| 2026-04-29 04:07 | 36.50163 | -8.12941 | 36869 ft | 475 kts | 165° |
| 2026-04-29 04:08 | 36.43952 | -8.10064 | 36873 ft | 474 kts | 165° |
| 2026-04-29 04:08 | 36.37763 | -8.07201 | 36877 ft | 474 kts | 165° |
| 2026-04-29 04:09 | 36.31613 | -8.04364 | 36878 ft | 474 kts | 165° |
| 2026-04-29 04:09 | 36.25452 | -8.01524 | 36878 ft | 474 kts | 165° |
| 2026-04-29 04:10 | 36.19263 | -7.98676 | 36877 ft | 475 kts | 165° |
| 2026-04-29 04:10 | 36.13081 | -7.95836 | 36880 ft | 474 kts | 165° |
| 2026-04-29 04:11 | 36.06867 | -7.92986 | 36878 ft | 474 kts | 165° |
| 2026-04-29 04:11 | 36.00680 | -7.90308 | 36874 ft | 471 kts | 169° |
| 2026-04-29 04:12 | 35.94354 | -7.88453 | 36878 ft | 466 kts | 176° |
| 2026-04-29 04:12 | 35.87937 | -7.87515 | 36876 ft | 461 kts | 182° |
| 2026-04-29 04:13 | 35.81547 | -7.86956 | 36879 ft | 462 kts | 181° |
| 2026-04-29 04:13 | 35.75131 | -7.86384 | 36880 ft | 461 kts | 181° |
| 2026-04-29 04:14 | 35.68720 | -7.85805 | 36883 ft | 462 kts | 181° |
| 2026-04-29 04:14 | 35.63137 | -7.85302 | 36885 ft | 461 kts | 181° |
| 2026-04-29 04:15 | 35.56986 | -7.84745 | 36890 ft | 461 kts | 181° |
| 2026-04-29 04:15 | 35.50617 | -7.84171 | 36893 ft | 461 kts | 181° |
| 2026-04-29 04:16 | 35.44203 | -7.83591 | 36893 ft | 461 kts | 181° |
| 2026-04-29 04:16 | 35.37788 | -7.83028 | 36893 ft | 462 kts | 181° |
| 2026-04-29 04:17 | 35.31378 | -7.82489 | 36896 ft | 461 kts | 181° |
| 2026-04-29 04:17 | 35.24985 | -7.81952 | 36888 ft | 461 kts | 181° |
| 2026-04-29 04:18 | 35.18611 | -7.81416 | 36884 ft | 461 kts | 181° |
| 2026-04-29 04:18 | 35.12178 | -7.80874 | 36890 ft | 461 kts | 181° |
| 2026-04-29 04:19 | 35.05806 | -7.80340 | 36892 ft | 461 kts | 181° |
| 2026-04-29 04:19 | 34.99387 | -7.79802 | 36893 ft | 462 kts | 181° |
| 2026-04-29 04:20 | 34.92987 | -7.79266 | 36893 ft | 461 kts | 181° |
| 2026-04-29 04:20 | 34.86588 | -7.78731 | 36896 ft | 461 kts | 181° |
| 2026-04-29 04:21 | 34.80188 | -7.78197 | 36898 ft | 461 kts | 181° |
| 2026-04-29 04:21 | 34.73799 | -7.77666 | 36906 ft | 461 kts | 181° |
| 2026-04-29 04:22 | 34.67397 | -7.77207 | 36907 ft | 460 kts | 182° |
| 2026-04-29 04:22 | 34.61000 | -7.76770 | 36905 ft | 461 kts | 182° |
| 2026-04-29 04:23 | 34.54624 | -7.76330 | 36909 ft | 461 kts | 182° |
| 2026-04-29 04:23 | 34.48222 | -7.75884 | 36901 ft | 461 kts | 182° |
| 2026-04-29 04:24 | 34.41803 | -7.75436 | 36900 ft | 461 kts | 182° |
| 2026-04-29 04:24 | 34.35379 | -7.74991 | 36904 ft | 462 kts | 182° |
| 2026-04-29 04:25 | 34.28997 | -7.74548 | 36906 ft | 462 kts | 182° |
| 2026-04-29 04:25 | 34.22560 | -7.74102 | 36903 ft | 462 kts | 182° |
| 2026-04-29 04:26 | 34.16161 | -7.73629 | 36905 ft | 463 kts | 181° |
| 2026-04-29 04:26 | 34.09725 | -7.73026 | 36907 ft | 464 kts | 180° |
| 2026-04-29 04:27 | 34.03298 | -7.72417 | 36909 ft | 464 kts | 180° |
| 2026-04-29 04:27 | 33.96850 | -7.71815 | 36911 ft | 463 kts | 181° |
| 2026-04-29 04:28 | 33.90441 | -7.71225 | 36912 ft | 463 kts | 181° |
| 2026-04-29 04:28 | 33.84024 | -7.70634 | 36911 ft | 463 kts | 180° |
| 2026-04-29 04:29 | 33.77571 | -7.70041 | 36910 ft | 464 kts | 180° |
| 2026-04-29 04:29 | 33.71120 | -7.69449 | 36911 ft | 464 kts | 180° |
| 2026-04-29 04:30 | 33.64709 | -7.68863 | 36912 ft | 464 kts | 180° |
| 2026-04-29 04:31 | 33.55111 | -7.68863 | 36912 ft | 455 kts | 193° |
| 2026-04-29 04:31 | 33.49017 | -7.70539 | 36918 ft | 448 kts | 204° |
| 2026-04-29 04:32 | 33.43339 | -7.73499 | 36923 ft | 440 kts | 213° |
| 2026-04-29 04:32 | 33.38012 | -7.77032 | 36925 ft | 440 kts | 214° |
| 2026-04-29 04:33 | 33.32662 | -7.80597 | 36927 ft | 440 kts | 214° |
| 2026-04-29 04:33 | 33.27301 | -7.84151 | 36931 ft | 440 kts | 214° |
| 2026-04-29 04:34 | 33.21963 | -7.87680 | 36933 ft | 440 kts | 214° |
| 2026-04-29 04:34 | 33.16611 | -7.91210 | 36928 ft | 442 kts | 214° |
| 2026-04-29 04:35 | 33.11220 | -7.94762 | 36532 ft | 441 kts | 213° |
| 2026-04-29 04:35 | 33.08549 | -7.96519 | 36070 ft | 438 kts | 213° |
| 2026-04-29 04:35 | 33.05901 | -7.98260 | 35422 ft | 437 kts | 213° |
| 2026-04-29 04:35 | 33.03244 | -8.00005 | 34693 ft | 436 kts | 213° |
| 2026-04-29 04:36 | 33.00585 | -8.01711 | 33982 ft | 437 kts | 211° |
| 2026-04-29 04:36 | 32.97837 | -8.03266 | 33289 ft | 440 kts | 208° |
| 2026-04-29 04:36 | 32.94964 | -8.04661 | 32557 ft | 443 kts | 205° |
| 2026-04-29 04:36 | 32.92075 | -8.05839 | 31825 ft | 446 kts | 202° |
| 2026-04-29 04:37 | 32.89062 | -8.06842 | 31051 ft | 450 kts | 198° |
| 2026-04-29 04:37 | 32.85998 | -8.07639 | 30237 ft | 453 kts | 195° |
| 2026-04-29 04:37 | 32.82903 | -8.08225 | 29406 ft | 457 kts | 192° |
| 2026-04-29 04:37 | 32.79718 | -8.08749 | 28531 ft | 459 kts | 192° |
| 2026-04-29 04:38 | 32.76594 | -8.09260 | 27637 ft | 461 kts | 192° |
| 2026-04-29 04:38 | 32.73409 | -8.09782 | 26695 ft | 463 kts | 192° |
| 2026-04-29 04:38 | 32.70187 | -8.10313 | 25748 ft | 465 kts | 191° |
| 2026-04-29 04:38 | 32.67016 | -8.10831 | 25145 ft | 463 kts | 191° |
| 2026-04-29 04:39 | 32.63829 | -8.11349 | 24567 ft | 459 kts | 191° |
| 2026-04-29 04:39 | 32.60707 | -8.11857 | 23986 ft | 454 kts | 191° |
| 2026-04-29 04:39 | 32.57567 | -8.12368 | 23402 ft | 450 kts | 191° |
| 2026-04-29 04:39 | 32.54516 | -8.12865 | 22819 ft | 445 kts | 191° |
| 2026-04-29 04:40 | 32.51436 | -8.13368 | 22227 ft | 440 kts | 191° |
| 2026-04-29 04:40 | 32.48428 | -8.13858 | 21654 ft | 436 kts | 191° |
| 2026-04-29 04:40 | 32.45464 | -8.14341 | 21074 ft | 431 kts | 191° |
| 2026-04-29 04:40 | 32.42503 | -8.14824 | 20503 ft | 427 kts | 191° |
| 2026-04-29 04:41 | 32.39574 | -8.15300 | 19921 ft | 423 kts | 191° |
| 2026-04-29 04:41 | 32.36675 | -8.15771 | 19348 ft | 420 kts | 191° |
| 2026-04-29 04:41 | 32.33779 | -8.16243 | 18767 ft | 417 kts | 191° |
| 2026-04-29 04:41 | 32.30929 | -8.16706 | 18201 ft | 414 kts | 191° |
| 2026-04-29 04:42 | 32.28072 | -8.17171 | 17627 ft | 411 kts | 191° |
| 2026-04-29 04:42 | 32.25248 | -8.17631 | 17065 ft | 408 kts | 191° |
| 2026-04-29 04:42 | 32.22489 | -8.18078 | 16704 ft | 398 kts | 191° |
| 2026-04-29 04:42 | 32.19748 | -8.18521 | 16394 ft | 388 kts | 190° |
| 2026-04-29 04:43 | 32.17131 | -8.18944 | 16131 ft | 378 kts | 190° |
| 2026-04-29 04:43 | 32.14567 | -8.19360 | 15953 ft | 365 kts | 190° |
| 2026-04-29 04:43 | 32.12088 | -8.19763 | 15775 ft | 354 kts | 191° |
| 2026-04-29 04:43 | 32.09653 | -8.20249 | 15335 ft | 352 kts | 192° |
| 2026-04-29 04:44 | 32.07247 | -8.20758 | 14872 ft | 351 kts | 192° |
| 2026-04-29 04:44 | 32.04845 | -8.21270 | 14422 ft | 349 kts | 192° |
| 2026-04-29 04:44 | 32.02475 | -8.21773 | 13975 ft | 347 kts | 192° |
| 2026-04-29 04:44 | 32.00114 | -8.22271 | 13526 ft | 345 kts | 191° |
| 2026-04-29 04:45 | 31.97757 | -8.22767 | 13079 ft | 343 kts | 192° |
| 2026-04-29 04:45 | 31.95405 | -8.23282 | 12599 ft | 341 kts | 195° |
| 2026-04-29 04:45 | 31.93246 | -8.24343 | 12037 ft | 337 kts | 214° |
| 2026-04-29 04:45 | 31.91508 | -8.26127 | 11618 ft | 332 kts | 232° |
| 2026-04-29 04:46 | 31.90282 | -8.28418 | 11190 ft | 328 kts | 243° |
| 2026-04-29 04:46 | 31.89232 | -8.30794 | 10747 ft | 326 kts | 242° |
| 2026-04-29 04:46 | 31.88084 | -8.33073 | 10333 ft | 322 kts | 238° |
| 2026-04-29 04:46 | 31.86807 | -8.35190 | 10194 ft | 310 kts | 233° |
| 2026-04-29 04:47 | 31.85460 | -8.37091 | 10070 ft | 298 kts | 229° |
| 2026-04-29 04:47 | 31.84042 | -8.38819 | 9935 ft | 288 kts | 225° |
| 2026-04-29 04:47 | 31.82566 | -8.40394 | 9585 ft | 287 kts | 221° |
| 2026-04-29 04:47 | 31.81009 | -8.41849 | 9239 ft | 285 kts | 217° |
| 2026-04-29 04:48 | 31.79408 | -8.43160 | 8941 ft | 281 kts | 214° |
| 2026-04-29 04:48 | 31.77748 | -8.44352 | 8696 ft | 275 kts | 210° |
| 2026-04-29 04:48 | 31.76070 | -8.45400 | 8432 ft | 271 kts | 207° |
| 2026-04-29 04:48 | 31.74369 | -8.46321 | 8143 ft | 268 kts | 204° |
| 2026-04-29 04:49 | 31.72635 | -8.47125 | 7864 ft | 264 kts | 201° |
| 2026-04-29 04:49 | 31.70914 | -8.47796 | 7642 ft | 260 kts | 197° |
| 2026-04-29 04:49 | 31.69177 | -8.48270 | 7367 ft | 256 kts | 184° |
| 2026-04-29 04:49 | 31.67427 | -8.48022 | 7057 ft | 253 kts | 159° |
| 2026-04-29 04:50 | 31.65974 | -8.46908 | 6783 ft | 248 kts | 131° |
| 2026-04-29 04:50 | 31.65127 | -8.45191 | 6516 ft | 243 kts | 104° |
| 2026-04-29 04:50 | 31.64838 | -8.43271 | 6279 ft | 238 kts | 96° |
| 2026-04-29 04:50 | 31.64650 | -8.41369 | 6052 ft | 234 kts | 97° |
| 2026-04-29 04:51 | 31.64452 | -8.39493 | 5821 ft | 230 kts | 103° |
| 2026-04-29 04:51 | 31.63983 | -8.37727 | 5588 ft | 225 kts | 109° |
| 2026-04-29 04:51 | 31.63576 | -8.35968 | 5385 ft | 221 kts | 102° |
| 2026-04-29 04:51 | 31.63355 | -8.34200 | 5194 ft | 215 kts | 95° |
| 2026-04-29 04:52 | 31.63228 | -8.32484 | 5023 ft | 209 kts | 95° |
| 2026-04-29 04:52 | 31.63107 | -8.30825 | 5013 ft | 200 kts | 94° |
| 2026-04-29 04:52 | 31.62979 | -8.29214 | 4981 ft | 200 kts | 94° |
| 2026-04-29 04:52 | 31.62839 | -8.27588 | 4966 ft | 199 kts | 94° |
| 2026-04-29 04:53 | 31.62694 | -8.25969 | 4871 ft | 199 kts | 95° |
| 2026-04-29 04:53 | 31.62548 | -8.24367 | 4623 ft | 197 kts | 95° |
| 2026-04-29 04:53 | 31.62402 | -8.22775 | 4371 ft | 197 kts | 96° |
| 2026-04-29 04:53 | 31.62255 | -8.21174 | 4146 ft | 197 kts | 96° |
| 2026-04-29 04:54 | 31.62111 | -8.19588 | 3883 ft | 197 kts | 95° |
| 2026-04-29 04:54 | 31.61965 | -8.17979 | 3619 ft | 196 kts | 95° |
| 2026-04-29 04:54 | 31.61826 | -8.16436 | 3348 ft | 187 kts | 95° |
| 2026-04-29 04:54 | 31.61693 | -8.14963 | 3114 ft | 175 kts | 94° |
| 2026-04-29 04:55 | 31.61567 | -8.13546 | 2894 ft | 175 kts | 95° |
| 2026-04-29 04:55 | 31.61444 | -8.12154 | 2666 ft | 166 kts | 95° |
| 2026-04-29 04:55 | 31.61331 | -8.10887 | 2447 ft | 151 kts | 95° |
| 2026-04-29 04:55 | 31.61222 | -8.09654 | 2279 ft | 161 kts | 95° |
| 2026-04-29 04:56 | 31.61101 | -8.08275 | 2071 ft | 170 kts | 96° |
| 2026-04-29 04:56 | 31.60984 | -8.06967 | 1826 ft | 157 kts | 95° |
| 2026-04-29 04:56 | 31.60874 | -8.05723 | 1615 ft | 146 kts | 95° |
| 2026-04-29 04:56 | 31.60778 | -8.04620 | 1525 ft | 122 kts | 95° |
| 2026-04-29 04:57 | 31.60707 | -8.03829 | 1535 ft | 73 kts | 96° |
| 2026-04-29 04:57 | 31.60653 | -8.03342 | 1540 ft | 49 kts | 121° |
| 2026-04-29 04:57 | 31.60543 | -8.03109 | 1545 ft | 9 kts | 125° |
| 2026-04-29 04:57 | 31.60538 | -8.03100 | 1545 ft | 0 kts | 125° |
| 2026-04-29 04:58 | 31.60533 | -8.03092 | 1545 ft | 2 kts | 125° |
| 2026-04-29 04:58 | 31.60473 | -8.02993 | 1547 ft | 17 kts | 125° |
| 2026-04-29 04:58 | 31.60448 | -8.02824 | 1550 ft | 27 kts | 92° |
| 2026-04-29 04:58 | 31.60424 | -8.02601 | 1555 ft | 31 kts | 99° |
| 2026-04-29 04:59 | 31.60393 | -8.02352 | 1557 ft | 29 kts | 98° |
| 2026-04-29 04:59 | 31.60321 | -8.02226 | 1561 ft | 16 kts | 189° |
| 2026-04-29 04:59 | 31.60232 | -8.02247 | 1563 ft | 12 kts | 190° |
| 2026-04-29 04:59 | 31.60198 | -8.02295 | 1564 ft | 8 kts | 279° |
| 2026-04-29 05:00 | 31.60202 | -8.02329 | 1564 ft | 0 kts | 276° |